Akrotiri, Cyprus
Current Conditions -  °F | °C
As of 12:50 PM on Wednesday 26 Nov 2014 (Local Time) from LCRA Reporting Station
Broken Clouds Broken Clouds  
Wind Chill: 61°   Ceiling: 6000
Heat Index: 61°   Visibility: 6mi
Dew Point: 43°   Wind: 14mph
Humidity: 52%   Direction: 290°WNW
Pressure: 29.77"   Gusts: NA
Location:  34.6°N, 32.96°E
Report Text: LCRA 260950Z 29012KT 9999 FEW040 BKN060 16/06 Q1008 NOSIG
Loading
Personal Weather Stations






























Interactive Weather Map New forecast layout! Learn more

10-Day Weather Forecast

Advertisements
Track Severe Weather on mobile